Statistiken

Seite 148 von 349 |< · · [145] [146] [147] [148] [149] [150] [151] · · >|

Die meistgelesenen Zitate

Nr. Zitat Pkte. Bew. Aufr. Mails Kom. Datum
7351 Der Segen des Herrn macht reich. ... 1.5185 54 3259 0 0 26.08.05 00:00
7352 Stecke dich nicht zwischen Vettern und Freunde, ... 0.0000 7 3259 0 0 26.08.05 00:00
7353 Mit Geld Probiert man die Welt. ... 0.8667 15 3258 0 0 26.08.05 00:00
7354 Da die Treue ward geborn, da kroch sie ... 0.7000 10 3258 0 0 26.08.05 00:00
7355 Wer leicht lacht, weint auch leicht. ... 0.4286 7 3258 0 2 26.08.05 00:00
7356 Chresdag an der Dühr, Ostern öm et Für. ... -0.5000 14 3258 0 8 26.08.05 00:00
7357 Ehrgeiz lebt vom Wind. ... 0.6000 5 3257 1 0 26.08.05 00:00
7358 Man muß sich nicht äpfel für Zitronen verkaufen lassen. ... 1.7308 26 3257 0 0 26.08.05 00:00
7359 Gott, Eltern und Lehrern kann man nie vergelten. ... 0.0000 4 3257 0 0 26.08.05 00:00
7360 Dem Pöbel muß man weichen, will man ihm nicht gleichen. ... 1.9385 130 3256 1 1 26.08.05 00:00
7361 Greif ehrlich zu, eh dir die Hände gebunden werden. ... 1.3000 10 3256 0 2 26.08.05 00:00
7362 Dem Fisch den Köder, der Maus den Speck. ... 0.6667 6 3256 0 3 26.08.05 00:00
7363 Ein Narr kann mehr fragen Als sieben Weise sagen. ... 0.0000 1 3256 0 0 26.08.05 00:00
7364 Gute Leute sind nicht Nachbarn. ... -1.0000 4 3256 0 0 26.08.05 00:00
7365 Aus kleinen Brunnen trinkt man sich ebenso ... 1.8875 80 3255 0 1 26.08.05 00:00
7366 Wo Geld redet, da gilt alle Rede nicht. ... 0.5000 10 3255 0 0 26.08.05 00:00
7367 Eine Magd, die gibt, beut aus die Ehr, ... 0.0000 2 3255 0 0 26.08.05 00:00
7368 Ja und Nein ist ein langer Streit. ... 1.5000 10 3254 1 0 26.08.05 00:00
7369 Das Kleid macht keinen Mönch. ... 0.6667 6 3254 1 0 26.08.05 00:00
7370 Ist der Bauch satt, so ist das Herz froh. ... -1.0000 6 3254 1 1 26.08.05 00:00
7371 Zur Knechtschaft wird keiner gezwungen, der ... 0.6250 8 3254 0 0 26.08.05 00:00
7372 Der Vater muß dem Kinde den Namen geben. ... 0.0000 5 3254 0 0 26.08.05 00:00
7373 Heirat der Alten ist ein Ladschreiben an den Totengräber. ... -0.5714 7 3254 0 0 26.08.05 00:00
7374 Der Ausgang wird's lehren. ... 0.5000 10 3253 0 1 26.08.05 00:00
7375 Einer gibt dem andern die Tür in die Hand. ... 0.2857 7 3253 0 1 26.08.05 00:00
7376 Glaube, wenn du's in der Hand hast. ... 0.6000 5 3252 0 0 26.08.05 00:00
7377 Ehrlich macht reich, aber langsam geht's her. ... 0.0000 1 3252 0 0 26.08.05 00:00
7378 Krieg hat viel Gaukelei. ... -0.1600 25 3252 0 0 26.08.05 00:00
7379 Zeuge von Hörensagen gilt im Recht nicht. ... 0.9000 10 3251 0 0 26.08.05 00:00
7380 Wozu jedermann den Schlüssel hat, das ist ... 0.5714 7 3251 0 0 26.08.05 00:00
7381 Glück ohne Mangel, Nicht ohne Angel. ... -0.2500 4 3251 0 0 26.08.05 00:00
7382 Lieb und Gesang kennt keinen Zwang. ... 0.1667 12 3250 2 0 26.08.05 00:00
7383 Lieber einen Darm im Leibe gesprengt, Als ... -0.5000 10 3250 1 3 26.08.05 00:00
7384 Zuviel Sorge zerbricht das Glas. ... 1.0000 3 3250 0 0 26.08.05 00:00
7385 Wen's juckt, der muß sich kratzen, käm' auch ... 0.0000 3 3250 0 1 26.08.05 00:00
7386 Kommt das Schiff wohl zu Land, so war der Steuermann gut. ... 0.0000 3 3248 1 0 26.08.05 00:00
7387 Fünf Ellen geben ein Paar Handschuh, wenn ... -1.0000 2 3248 0 0 26.08.05 00:00
7388 Menschensinn ist Menschenleben. ... 0.4000 5 3247 0 0 26.08.05 00:00
7389 Wer den Kern essen will, muß erst die Nuß knacken. ... 1.6818 22 3246 1 0 26.08.05 00:00
7390 Kinderzeugen ist keine Zwangsarbeit. ... 1.3750 16 3246 0 0 26.08.05 00:00
7391 Wenn du deinem Nachbarn die Hand reichst, ... 1.3000 10 3246 0 0 26.08.05 00:00
7392 Allzeit gewinnen macht verdächtig, Allzeit ... 0.4000 5 3246 0 0 26.08.05 00:00
7393 Begoßne Hunde fürchten das Wasser. ... 0.4000 10 3245 1 0 26.08.05 00:00
7394 Betrügen ist ehrlicher denn stehlen. ... -1.4000 10 3245 1 0 26.08.05 00:00
7395 Vom Hecht den Schwanz, vom Karpfen den Kopf. ... -0.6667 6 3245 0 1 26.08.05 00:00
7396 Von leerem Dank Wird die Küche mank. ... -0.6667 3 3245 0 0 26.08.05 00:00
7397 Sünde büßt sich selbst. ... 1.3750 8 3244 0 0 26.08.05 00:00
7398 Wer die Wahrheit geigt, dem schlägt man den ... 1.0000 6 3244 0 1 26.08.05 00:00
7399 Jedes Land hat seinen Teufel, der von Deutschland ... 1.0000 3 3244 0 0 26.08.05 00:00
7400 Afterreden und Zorn gehören sich nicht über Tisch. ... 0.5000 12 3243 2 8 26.08.05 00:00

[Favoriten] [Punkte] [Bewertungen] [Aufrufe] [Mails] [Kommentare] [Datum]

Seite 148 von 349 |< · < · [1] [2] [3] [4] [5] [6] [7] [8] [9] [10] [11] [12] [13] [14] [15] [16] [17] [18] [19] [20] [21] [22] [23] [24] [25] [26] [27] [28] [29] [30] [31] [32] [33] [34] [35] [36] [37] [38] [39] [40] [41] [42] [43] [44] [45] [46] [47] [48] [49] [50] [51] [52] [53] [54] [55] [56] [57] [58] [59] [60] [61] [62] [63] [64] [65] [66] [67] [68] [69] [70] [71] [72] [73] [74] [75] [76] [77] [78] [79] [80] [81] [82] [83] [84] [85] [86] [87] [88] [89] [90] [91] [92] [93] [94] [95] [96] [97] [98] [99] [100] [101] [102] [103] [104] [105] [106] [107] [108] [109] [110] [111] [112] [113] [114] [115] [116] [117] [118] [119] [120] [121] [122] [123] [124] [125] [126] [127] [128] [129] [130] [131] [132] [133] [134] [135] [136] [137] [138] [139] [140] [141] [142] [143] [144] [145] [146] [147] [148] [149] [150] [151] [152] [153] [154] [155] [156] [157] [158] [159] [160] [161] [162] [163] [164] [165] [166] [167] [168] [169] [170] [171] [172] [173] [174] [175] [176] [177] [178] [179] [180] [181] [182] [183] [184] [185] [186] [187] [188] [189] [190] [191] [192] [193] [194] [195] [196] [197] [198] [199] [200] [201] [202] [203] [204] [205] [206] [207] [208] [209] [210] [211] [212] [213] [214] [215] [216] [217] [218] [219] [220] [221] [222] [223] [224] [225] [226] [227] [228] [229] [230] [231] [232] [233] [234] [235] [236] [237] [238] [239] [240] [241] [242] [243] [244] [245] [246] [247] [248] [249] [250] [251] [252] [253] [254] [255] [256] [257] [258] [259] [260] [261] [262] [263] [264] [265] [266] [267] [268] [269] [270] [271] [272] [273] [274] [275] [276] [277] [278] [279] [280] [281] [282] [283] [284] [285] [286] [287] [288] [289] [290] [291] [292] [293] [294] [295] [296] [297] [298] [299] [300] [301] [302] [303] [304] [305] [306] [307] [308] [309] [310] [311] [312] [313] [314] [315] [316] [317] [318] [319] [320] [321] [322] [323] [324] [325] [326] [327] [328] [329] [330] [331] [332] [333] [334] [335] [336] [337] [338] [339] [340] [341] [342] [343] [344] [345] [346] [347] [348] [349] · > · >|

Zuletzt gesucht